Shirley P. Settoon — WDF9252 — position and weather

sailwx.info

Track history (hours):
 
Tides and Currents Weather Stations Pressure Air Temp Water Temp Dewpoint Dewpoint Depression Visibility Wind Speed Wind Dir Waves Ship Positions

Shirley P. Settoon

Owner: Settoon Towing, LLC, Houma, LA. More information available from US FCC via Universal Licensing System and Coast Guard Vessel Documentation Center.

Last reported at 2016-Aug-30 18:31 UTC. Time now 2016-Aug-31 16:01 UTC.
Position N 29°47' W 095°04'.

Length 32 m.

Type: Towing. MMSI: 367503240.

Date/timePositionNaut miles runAvg speedWind from/ knotsBaromVisibWave heightAir tempDewpointWater temp
2016-Aug-30 18:31N 29°47' W 095°04'0 0.0
2016-Aug-30 17:30N 29°47' W 095°04'4 1.4
2016-Aug-30 14:29N 29°44' W 095°08'3 2.9
2016-Aug-30 13:16N 29°47' W 095°06'0 0.0
2016-Aug-29 23:32N 29°47' W 095°06'1 1.1
2016-Aug-29 22:27N 29°47' W 095°04'2 0.3
2016-Aug-29 17:05N 29°46' W 095°06'2 2.3
2016-Aug-29 16:18N 29°47' W 095°05'0 0.0
2016-Aug-28 15:28N 29°47' W 095°05'3 2.7
2016-Aug-28 14:26N 29°45' W 095°06'1 0.1
2016-Aug-27 14:25N 29°44' W 095°07'4 4.1
2016-Aug-27 13:27N 29°47' W 095°05'0 0.3
2016-Aug-27 12:32N 29°47' W 095°05'2 1.5
2016-Aug-27 11:33N 29°46' W 095°05'4 0.3
2016-Aug-26 23:05N 29°45' W 095°10'3 6.2
2016-Aug-26 22:33N 29°45' W 095°06'3 2.2
2016-Aug-26 21:16N 29°47' W 095°05'3 4.8
2016-Aug-26 20:33N 29°44' W 095°07'3 0.2
2016-Aug-26 08:28N 29°45' W 095°10'5 5.8
2016-Aug-26 07:31N 29°47' W 095°04'1 0.4
2016-Aug-26 06:10N 29°47' W 095°05'1 0.3
2016-Aug-26 03:31N 29°47' W 095°05'4 3.8
2016-Aug-26 02:30N 29°44' W 095°01'4 4.0
2016-Aug-26 01:30N 29°45' W 095°06'1 0.0
2016-Aug-25 00:29N 29°46' W 095°05'1 1.2
2016-Aug-24 23:21N 29°47' W 095°06'0 0.0
2016-Aug-24 22:31N 29°47' W 095°06'1 0.7
2016-Aug-24 21:26N 29°47' W 095°05'0 0.0
2016-Aug-24 20:21N 29°47' W 095°05'0 0.0
2016-Aug-24 19:25N 29°47' W 095°05'0 0.0
2016-Aug-24 18:32N 29°47' W 095°05'0 0.0
2016-Aug-23 01:14N 29°47' W 095°05'0 0.0
2016-Aug-22 23:08N 29°47' W 095°05'0 0.0
2016-Aug-22 17:33N 29°47' W 095°05'0 0.0
2016-Aug-22 14:16N 29°47' W 095°05'  
Track history (hours):
 
Tides and Currents Weather Stations Pressure Air Temp Water Temp Dewpoint Dewpoint Depression Visibility Wind Speed Wind Dir Waves Ship Positions

Shirley P. Settoon

Owner: Settoon Towing, LLC, Houma, LA. More information available from US FCC via Universal Licensing System and Coast Guard Vessel Documentation Center.

Last reported at 2016-Aug-30 18:31 UTC. Time now 2016-Aug-31 16:01 UTC.
Position N 29°47' W 095°04'.

Length 32 m.

Type: Towing. MMSI: 367503240.

Date/timePositionNaut miles runAvg speedWind from/ knotsBaromVisibWave heightAir tempDewpointWater temp
2016-Aug-30 18:31N 29°47' W 095°04'0 0.0
2016-Aug-30 17:30N 29°47' W 095°04'4 1.4
2016-Aug-30 14:29N 29°44' W 095°08'3 2.9
2016-Aug-30 13:16N 29°47' W 095°06'0 0.0
2016-Aug-29 23:32N 29°47' W 095°06'1 1.1
2016-Aug-29 22:27N 29°47' W 095°04'2 0.3
2016-Aug-29 17:05N 29°46' W 095°06'2 2.3
2016-Aug-29 16:18N 29°47' W 095°05'0 0.0
2016-Aug-28 15:28N 29°47' W 095°05'3 2.7
2016-Aug-28 14:26N 29°45' W 095°06'1 0.1
2016-Aug-27 14:25N 29°44' W 095°07'4 4.1
2016-Aug-27 13:27N 29°47' W 095°05'0 0.3
2016-Aug-27 12:32N 29°47' W 095°05'2 1.5
2016-Aug-27 11:33N 29°46' W 095°05'4 0.3
2016-Aug-26 23:05N 29°45' W 095°10'3 6.2
2016-Aug-26 22:33N 29°45' W 095°06'3 2.2
2016-Aug-26 21:16N 29°47' W 095°05'3 4.8
2016-Aug-26 20:33N 29°44' W 095°07'3 0.2
2016-Aug-26 08:28N 29°45' W 095°10'5 5.8
2016-Aug-26 07:31N 29°47' W 095°04'1 0.4
2016-Aug-26 06:10N 29°47' W 095°05'1 0.3
2016-Aug-26 03:31N 29°47' W 095°05'4 3.8
2016-Aug-26 02:30N 29°44' W 095°01'4 4.0
2016-Aug-26 01:30N 29°45' W 095°06'1 0.0
2016-Aug-25 00:29N 29°46' W 095°05'1 1.2
2016-Aug-24 23:21N 29°47' W 095°06'0 0.0
2016-Aug-24 22:31N 29°47' W 095°06'1 0.7
2016-Aug-24 21:26N 29°47' W 095°05'0 0.0
2016-Aug-24 20:21N 29°47' W 095°05'0 0.0
2016-Aug-24 19:25N 29°47' W 095°05'0 0.0
2016-Aug-24 18:32N 29°47' W 095°05'0 0.0
2016-Aug-23 01:14N 29°47' W 095°05'0 0.0
2016-Aug-22 23:08N 29°47' W 095°05'0 0.0
2016-Aug-22 17:33N 29°47' W 095°05'0 0.0
2016-Aug-22 14:16N 29°47' W 095°05'  

Dump ship's entire track history